sensor_id;sensor_type;location;lat;lon;timestamp;P1;durP1;ratioP1;P2;durP2;ratioP2
11709;SDS011;5911;51.036;6.972;2022-10-13T00:00:48;26.43;;;15.27;;
11709;SDS011;5911;51.036;6.972;2022-10-13T00:03:16;21.63;;;14.60;;
11709;SDS011;5911;51.036;6.972;2022-10-13T00:05:46;21.63;;;13.57;;
11709;SDS011;5911;51.036;6.972;2022-10-13T00:08:16;21.63;;;14.53;;
11709;SDS011;5911;51.036;6.972;2022-10-13T00:10:46;22.73;;;14.67;;
11709;SDS011;5911;51.036;6.972;2022-10-13T00:13:18;20.63;;;14.20;;
11709;SDS011;5911;51.036;6.972;2022-10-13T00:15:46;25.37;;;15.40;;
11709;SDS011;5911;51.036;6.972;2022-10-13T00:18:15;23.10;;;14.17;;
11709;SDS011;5911;51.036;6.972;2022-10-13T00:20:44;24.73;;;13.60;;
11709;SDS011;5911;51.036;6.972;2022-10-13T00:23:14;23.33;;;13.75;;
11709;SDS011;5911;51.036;6.972;2022-10-13T00:25:43;22.40;;;14.60;;
11709;SDS011;5911;51.036;6.972;2022-10-13T00:28:12;23.13;;;14.00;;
11709;SDS011;5911;51.036;6.972;2022-10-13T00:30:41;24.10;;;14.83;;
11709;SDS011;5911;51.036;6.972;2022-10-13T00:33:09;18.17;;;13.13;;
11709;SDS011;5911;51.036;6.972;2022-10-13T00:35:41;20.50;;;13.80;;
11709;SDS011;5911;51.036;6.972;2022-10-13T00:38:14;20.30;;;13.40;;
11709;SDS011;5911;51.036;6.972;2022-10-13T00:40:43;18.70;;;13.07;;
11709;SDS011;5911;51.036;6.972;2022-10-13T00:43:14;20.23;;;13.50;;
11709;SDS011;5911;51.036;6.972;2022-10-13T00:45:44;26.03;;;13.37;;
11709;SDS011;5911;51.036;6.972;2022-10-13T00:48:15;19.87;;;13.57;;
11709;SDS011;5911;51.036;6.972;2022-10-13T00:50:45;21.17;;;13.57;;
11709;SDS011;5911;51.036;6.972;2022-10-13T00:53:15;21.20;;;13.93;;
11709;SDS011;5911;51.036;6.972;2022-10-13T00:55:44;18.50;;;14.07;;
11709;SDS011;5911;51.036;6.972;2022-10-13T00:58:14;24.63;;;13.30;;
11709;SDS011;5911;51.036;6.972;2022-10-13T01:00:45;22.80;;;13.20;;
11709;SDS011;5911;51.036;6.972;2022-10-13T01:03:15;20.07;;;12.63;;
11709;SDS011;5911;51.036;6.972;2022-10-13T01:05:44;21.43;;;13.70;;
11709;SDS011;5911;51.036;6.972;2022-10-13T01:08:15;20.73;;;13.77;;
11709;SDS011;5911;51.036;6.972;2022-10-13T01:10:48;25.57;;;13.30;;
11709;SDS011;5911;51.036;6.972;2022-10-13T01:13:26;22.50;;;14.43;;
11709;SDS011;5911;51.036;6.972;2022-10-13T01:16:05;22.10;;;14.03;;
11709;SDS011;5911;51.036;6.972;2022-10-13T01:18:39;20.30;;;13.17;;
11709;SDS011;5911;51.036;6.972;2022-10-13T01:21:17;18.37;;;12.60;;
11709;SDS011;5911;51.036;6.972;2022-10-13T01:27:07;16.83;;;11.93;;
11709;SDS011;5911;51.036;6.972;2022-10-13T01:29:47;20.10;;;12.27;;
11709;SDS011;5911;51.036;6.972;2022-10-13T01:32:35;20.17;;;12.93;;
11709;SDS011;5911;51.036;6.972;2022-10-13T01:35:10;20.47;;;13.37;;
11709;SDS011;5911;51.036;6.972;2022-10-13T01:37:43;22.57;;;13.43;;
11709;SDS011;5911;51.036;6.972;2022-10-13T01:40:17;20.20;;;13.23;;
11709;SDS011;5911;51.036;6.972;2022-10-13T01:42:52;19.90;;;13.23;;
11709;SDS011;5911;51.036;6.972;2022-10-13T01:45:27;21.87;;;12.80;;
11709;SDS011;5911;51.036;6.972;2022-10-13T01:47:58;19.57;;;13.50;;
11709;SDS011;5911;51.036;6.972;2022-10-13T01:50:28;25.90;;;14.40;;
11709;SDS011;5911;51.036;6.972;2022-10-13T01:53:01;21.40;;;13.03;;
11709;SDS011;5911;51.036;6.972;2022-10-13T01:55:33;22.43;;;13.37;;
11709;SDS011;5911;51.036;6.972;2022-10-13T01:58:01;23.70;;;13.97;;
11709;SDS011;5911;51.036;6.972;2022-10-13T02:00:30;19.53;;;13.03;;
11709;SDS011;5911;51.036;6.972;2022-10-13T02:03:10;20.27;;;13.63;;
11709;SDS011;5911;51.036;6.972;2022-10-13T02:05:44;24.10;;;13.93;;
11709;SDS011;5911;51.036;6.972;2022-10-13T02:08:18;22.10;;;12.80;;
11709;SDS011;5911;51.036;6.972;2022-10-13T02:10:51;25.60;;;13.93;;
11709;SDS011;5911;51.036;6.972;2022-10-13T02:13:25;22.47;;;15.90;;
11709;SDS011;5911;51.036;6.972;2022-10-13T02:15:57;20.77;;;14.23;;
11709;SDS011;5911;51.036;6.972;2022-10-13T02:18:29;26.27;;;14.57;;
11709;SDS011;5911;51.036;6.972;2022-10-13T02:21:00;24.43;;;15.00;;
11709;SDS011;5911;51.036;6.972;2022-10-13T02:23:29;23.57;;;14.63;;
11709;SDS011;5911;51.036;6.972;2022-10-13T02:26:00;28.60;;;15.30;;
11709;SDS011;5911;51.036;6.972;2022-10-13T02:28:28;26.40;;;16.43;;
11709;SDS011;5911;51.036;6.972;2022-10-13T02:30:57;23.87;;;14.93;;
11709;SDS011;5911;51.036;6.972;2022-10-13T02:33:25;24.77;;;14.80;;
11709;SDS011;5911;51.036;6.972;2022-10-13T02:35:53;23.53;;;14.83;;
11709;SDS011;5911;51.036;6.972;2022-10-13T02:38:21;30.13;;;16.30;;
11709;SDS011;5911;51.036;6.972;2022-10-13T02:40:49;27.17;;;15.50;;
11709;SDS011;5911;51.036;6.972;2022-10-13T02:43:17;25.27;;;15.00;;
11709;SDS011;5911;51.036;6.972;2022-10-13T02:45:45;28.43;;;16.23;;
11709;SDS011;5911;51.036;6.972;2022-10-13T02:48:14;25.13;;;16.40;;
11709;SDS011;5911;51.036;6.972;2022-10-13T02:50:42;23.47;;;14.83;;
11709;SDS011;5911;51.036;6.972;2022-10-13T02:53:09;25.37;;;16.10;;
11709;SDS011;5911;51.036;6.972;2022-10-13T02:55:37;25.00;;;15.47;;
11709;SDS011;5911;51.036;6.972;2022-10-13T02:58:05;25.83;;;15.80;;
11709;SDS011;5911;51.036;6.972;2022-10-13T03:00:33;23.03;;;15.43;;
11709;SDS011;5911;51.036;6.972;2022-10-13T03:03:01;25.40;;;15.13;;
11709;SDS011;5911;51.036;6.972;2022-10-13T03:05:30;23.17;;;15.03;;
11709;SDS011;5911;51.036;6.972;2022-10-13T03:07:58;22.67;;;14.37;;
11709;SDS011;5911;51.036;6.972;2022-10-13T03:10:26;23.23;;;13.97;;
11709;SDS011;5911;51.036;6.972;2022-10-13T03:12:55;21.77;;;14.07;;
11709;SDS011;5911;51.036;6.972;2022-10-13T03:15:23;24.03;;;14.17;;
11709;SDS011;5911;51.036;6.972;2022-10-13T03:17:54;20.30;;;14.70;;
11709;SDS011;5911;51.036;6.972;2022-10-13T03:20:21;18.43;;;14.23;;
11709;SDS011;5911;51.036;6.972;2022-10-13T03:22:50;19.03;;;13.33;;
11709;SDS011;5911;51.036;6.972;2022-10-13T03:25:18;19.33;;;12.97;;
11709;SDS011;5911;51.036;6.972;2022-10-13T03:27:46;20.17;;;13.07;;
11709;SDS011;5911;51.036;6.972;2022-10-13T03:30:14;16.80;;;11.60;;
11709;SDS011;5911;51.036;6.972;2022-10-13T03:32:41;14.13;;;11.17;;
11709;SDS011;5911;51.036;6.972;2022-10-13T03:35:09;15.53;;;10.87;;
11709;SDS011;5911;51.036;6.972;2022-10-13T03:37:37;18.60;;;11.80;;
11709;SDS011;5911;51.036;6.972;2022-10-13T03:40:07;16.67;;;11.67;;
11709;SDS011;5911;51.036;6.972;2022-10-13T03:42:36;17.00;;;10.23;;
11709;SDS011;5911;51.036;6.972;2022-10-13T03:45:04;13.83;;;10.67;;
11709;SDS011;5911;51.036;6.972;2022-10-13T03:47:34;14.07;;;10.57;;
11709;SDS011;5911;51.036;6.972;2022-10-13T03:50:02;14.43;;;10.50;;
11709;SDS011;5911;51.036;6.972;2022-10-13T03:52:31;15.50;;;11.23;;
11709;SDS011;5911;51.036;6.972;2022-10-13T03:54:58;13.93;;;10.17;;
11709;SDS011;5911;51.036;6.972;2022-10-13T03:57:27;15.43;;;10.13;;
11709;SDS011;5911;51.036;6.972;2022-10-13T03:59:56;17.57;;;10.80;;
11709;SDS011;5911;51.036;6.972;2022-10-13T04:02:25;12.90;;;10.53;;
11709;SDS011;5911;51.036;6.972;2022-10-13T04:04:53;13.37;;;10.03;;
11709;SDS011;5911;51.036;6.972;2022-10-13T04:07:20;16.03;;;10.33;;
11709;SDS011;5911;51.036;6.972;2022-10-13T04:09:48;15.30;;;10.63;;
11709;SDS011;5911;51.036;6.972;2022-10-13T04:12:16;13.13;;;9.80;;
11709;SDS011;5911;51.036;6.972;2022-10-13T04:14:47;13.50;;;10.70;;
11709;SDS011;5911;51.036;6.972;2022-10-13T04:17:15;16.37;;;11.30;;
11709;SDS011;5911;51.036;6.972;2022-10-13T04:19:43;16.00;;;11.63;;
11709;SDS011;5911;51.036;6.972;2022-10-13T04:22:11;15.20;;;11.10;;
11709;SDS011;5911;51.036;6.972;2022-10-13T04:24:39;19.37;;;12.07;;
11709;SDS011;5911;51.036;6.972;2022-10-13T04:27:07;20.10;;;12.30;;
11709;SDS011;5911;51.036;6.972;2022-10-13T04:29:35;18.63;;;11.87;;
11709;SDS011;5911;51.036;6.972;2022-10-13T04:32:04;18.00;;;12.13;;
11709;SDS011;5911;51.036;6.972;2022-10-13T04:34:32;21.03;;;12.00;;
11709;SDS011;5911;51.036;6.972;2022-10-13T04:37:00;23.07;;;12.80;;
11709;SDS011;5911;51.036;6.972;2022-10-13T04:39:28;21.87;;;13.43;;
11709;SDS011;5911;51.036;6.972;2022-10-13T04:41:56;20.13;;;12.70;;
11709;SDS011;5911;51.036;6.972;2022-10-13T04:44:23;21.70;;;13.63;;
11709;SDS011;5911;51.036;6.972;2022-10-13T04:46:51;22.60;;;14.60;;
11709;SDS011;5911;51.036;6.972;2022-10-13T04:49:21;21.83;;;14.80;;
11709;SDS011;5911;51.036;6.972;2022-10-13T04:51:49;24.70;;;16.70;;
11709;SDS011;5911;51.036;6.972;2022-10-13T04:54:16;25.87;;;15.30;;
11709;SDS011;5911;51.036;6.972;2022-10-13T04:56:44;24.17;;;15.70;;
11709;SDS011;5911;51.036;6.972;2022-10-13T04:59:12;23.70;;;15.07;;
11709;SDS011;5911;51.036;6.972;2022-10-13T05:01:40;26.77;;;15.43;;
11709;SDS011;5911;51.036;6.972;2022-10-13T05:04:11;20.27;;;14.07;;
11709;SDS011;5911;51.036;6.972;2022-10-13T05:06:41;20.77;;;14.10;;
11709;SDS011;5911;51.036;6.972;2022-10-13T05:09:29;27.23;;;15.40;;
11709;SDS011;5911;51.036;6.972;2022-10-13T05:11:57;25.63;;;15.07;;
11709;SDS011;5911;51.036;6.972;2022-10-13T05:14:24;21.87;;;14.20;;
11709;SDS011;5911;51.036;6.972;2022-10-13T05:16:52;18.73;;;14.23;;
11709;SDS011;5911;51.036;6.972;2022-10-13T05:19:20;25.17;;;14.50;;
11709;SDS011;5911;51.036;6.972;2022-10-13T05:21:49;25.70;;;15.10;;
11709;SDS011;5911;51.036;6.972;2022-10-13T05:24:17;26.50;;;15.07;;
11709;SDS011;5911;51.036;6.972;2022-10-13T05:26:56;19.53;;;12.53;;
11709;SDS011;5911;51.036;6.972;2022-10-13T05:29:24;20.30;;;13.53;;
11709;SDS011;5911;51.036;6.972;2022-10-13T05:31:51;24.50;;;13.57;;
11709;SDS011;5911;51.036;6.972;2022-10-13T05:34:19;19.27;;;12.93;;
11709;SDS011;5911;51.036;6.972;2022-10-13T05:36:48;20.53;;;13.70;;
11709;SDS011;5911;51.036;6.972;2022-10-13T05:39:16;24.80;;;14.53;;
11709;SDS011;5911;51.036;6.972;2022-10-13T05:41:44;21.27;;;13.77;;
11709;SDS011;5911;51.036;6.972;2022-10-13T05:44:17;22.13;;;13.47;;
11709;SDS011;5911;51.036;6.972;2022-10-13T05:46:51;18.83;;;12.70;;
11709;SDS011;5911;51.036;6.972;2022-10-13T05:49:19;22.07;;;13.70;;
11709;SDS011;5911;51.036;6.972;2022-10-13T05:51:52;20.93;;;13.73;;
11709;SDS011;5911;51.036;6.972;2022-10-13T05:54:23;19.73;;;13.40;;
11709;SDS011;5911;51.036;6.972;2022-10-13T05:56:56;20.67;;;11.87;;
11709;SDS011;5911;51.036;6.972;2022-10-13T05:59:31;17.17;;;11.60;;
11709;SDS011;5911;51.036;6.972;2022-10-13T06:02:04;16.23;;;12.00;;
11709;SDS011;5911;51.036;6.972;2022-10-13T06:04:36;16.50;;;12.13;;
11709;SDS011;5911;51.036;6.972;2022-10-13T06:07:10;21.13;;;13.03;;
11709;SDS011;5911;51.036;6.972;2022-10-13T06:09:39;21.57;;;14.07;;
11709;SDS011;5911;51.036;6.972;2022-10-13T06:12:11;21.03;;;12.97;;
11709;SDS011;5911;51.036;6.972;2022-10-13T06:14:42;19.60;;;13.23;;
11709;SDS011;5911;51.036;6.972;2022-10-13T06:17:11;19.70;;;12.53;;
11709;SDS011;5911;51.036;6.972;2022-10-13T06:19:41;17.67;;;11.90;;
11709;SDS011;5911;51.036;6.972;2022-10-13T06:22:11;16.57;;;12.37;;
11709;SDS011;5911;51.036;6.972;2022-10-13T06:24:39;14.67;;;10.93;;
11709;SDS011;5911;51.036;6.972;2022-10-13T06:27:07;18.13;;;11.57;;
11709;SDS011;5911;51.036;6.972;2022-10-13T06:29:39;12.40;;;9.83;;
11709;SDS011;5911;51.036;6.972;2022-10-13T06:32:07;13.70;;;9.53;;
11709;SDS011;5911;51.036;6.972;2022-10-13T06:34:38;18.80;;;11.57;;
11709;SDS011;5911;51.036;6.972;2022-10-13T06:37:08;17.50;;;11.27;;
11709;SDS011;5911;51.036;6.972;2022-10-13T06:39:37;17.63;;;10.97;;
11709;SDS011;5911;51.036;6.972;2022-10-13T06:42:05;16.50;;;11.27;;
11709;SDS011;5911;51.036;6.972;2022-10-13T06:44:36;17.90;;;11.23;;
11709;SDS011;5911;51.036;6.972;2022-10-13T06:47:04;20.17;;;13.47;;
11709;SDS011;5911;51.036;6.972;2022-10-13T06:49:32;17.87;;;11.87;;
11709;SDS011;5911;51.036;6.972;2022-10-13T06:52:00;19.03;;;11.90;;
11709;SDS011;5911;51.036;6.972;2022-10-13T06:54:28;17.67;;;11.97;;
11709;SDS011;5911;51.036;6.972;2022-10-13T06:56:57;19.10;;;12.53;;
11709;SDS011;5911;51.036;6.972;2022-10-13T06:59:25;16.40;;;11.50;;
11709;SDS011;5911;51.036;6.972;2022-10-13T07:01:53;20.90;;;11.90;;
11709;SDS011;5911;51.036;6.972;2022-10-13T07:04:21;16.27;;;10.65;;
11709;SDS011;5911;51.036;6.972;2022-10-13T07:06:54;16.13;;;12.17;;
11709;SDS011;5911;51.036;6.972;2022-10-13T07:09:22;17.60;;;12.63;;
11709;SDS011;5911;51.036;6.972;2022-10-13T07:11:50;22.57;;;14.57;;
11709;SDS011;5911;51.036;6.972;2022-10-13T07:14:19;26.37;;;15.30;;
11709;SDS011;5911;51.036;6.972;2022-10-13T07:16:46;30.80;;;16.37;;
11709;SDS011;5911;51.036;6.972;2022-10-13T07:19:14;31.20;;;15.27;;
11709;SDS011;5911;51.036;6.972;2022-10-13T07:21:42;23.03;;;14.10;;
11709;SDS011;5911;51.036;6.972;2022-10-13T07:24:10;21.23;;;12.40;;
11709;SDS011;5911;51.036;6.972;2022-10-13T07:26:38;23.87;;;13.20;;
11709;SDS011;5911;51.036;6.972;2022-10-13T07:29:06;15.60;;;11.60;;
11709;SDS011;5911;51.036;6.972;2022-10-13T07:31:36;14.45;;;10.52;;
11709;SDS011;5911;51.036;6.972;2022-10-13T07:34:04;14.93;;;10.07;;
11709;SDS011;5911;51.036;6.972;2022-10-13T07:36:33;14.00;;;10.60;;
11709;SDS011;5911;51.036;6.972;2022-10-13T07:39:03;17.43;;;12.67;;
11709;SDS011;5911;51.036;6.972;2022-10-13T07:41:30;24.37;;;14.27;;
11709;SDS011;5911;51.036;6.972;2022-10-13T07:43:58;20.40;;;12.37;;
11709;SDS011;5911;51.036;6.972;2022-10-13T07:46:26;19.90;;;12.23;;
11709;SDS011;5911;51.036;6.972;2022-10-13T07:48:56;15.07;;;11.20;;
11709;SDS011;5911;51.036;6.972;2022-10-13T07:51:24;27.37;;;13.50;;
11709;SDS011;5911;51.036;6.972;2022-10-13T07:53:52;21.90;;;13.53;;
11709;SDS011;5911;51.036;6.972;2022-10-13T07:56:20;24.93;;;14.13;;
11709;SDS011;5911;51.036;6.972;2022-10-13T07:58:48;19.77;;;13.37;;
11709;SDS011;5911;51.036;6.972;2022-10-13T08:01:16;24.67;;;14.10;;
11709;SDS011;5911;51.036;6.972;2022-10-13T08:03:44;21.93;;;13.83;;
11709;SDS011;5911;51.036;6.972;2022-10-13T08:06:18;20.53;;;13.17;;
11709;SDS011;5911;51.036;6.972;2022-10-13T08:08:45;20.83;;;12.37;;
11709;SDS011;5911;51.036;6.972;2022-10-13T08:11:15;25.83;;;13.40;;
11709;SDS011;5911;51.036;6.972;2022-10-13T08:13:47;20.67;;;12.47;;
11709;SDS011;5911;51.036;6.972;2022-10-13T08:16:20;21.83;;;13.87;;
11709;SDS011;5911;51.036;6.972;2022-10-13T08:18:48;25.23;;;14.93;;
11709;SDS011;5911;51.036;6.972;2022-10-13T08:21:18;29.17;;;16.23;;
11709;SDS011;5911;51.036;6.972;2022-10-13T08:24:08;30.40;;;18.23;;
11709;SDS011;5911;51.036;6.972;2022-10-13T08:26:39;25.33;;;16.08;;
11709;SDS011;5911;51.036;6.972;2022-10-13T08:29:10;23.25;;;13.63;;
11709;SDS011;5911;51.036;6.972;2022-10-13T08:31:48;16.92;;;12.82;;
11709;SDS011;5911;51.036;6.972;2022-10-13T08:34:16;19.87;;;13.47;;
11709;SDS011;5911;51.036;6.972;2022-10-13T08:36:46;17.40;;;12.13;;
11709;SDS011;5911;51.036;6.972;2022-10-13T08:39:18;15.57;;;11.87;;
11709;SDS011;5911;51.036;6.972;2022-10-13T08:41:46;16.83;;;11.32;;
11709;SDS011;5911;51.036;6.972;2022-10-13T08:44:17;15.27;;;10.63;;
11709;SDS011;5911;51.036;6.972;2022-10-13T08:47:09;14.77;;;11.43;;
11709;SDS011;5911;51.036;6.972;2022-10-13T08:49:42;16.38;;;11.40;;
11709;SDS011;5911;51.036;6.972;2022-10-13T08:52:15;17.65;;;12.20;;
11709;SDS011;5911;51.036;6.972;2022-10-13T08:54:46;22.20;;;14.17;;
11709;SDS011;5911;51.036;6.972;2022-10-13T08:57:15;26.90;;;15.23;;
11709;SDS011;5911;51.036;6.972;2022-10-13T08:59:44;23.77;;;14.60;;
11709;SDS011;5911;51.036;6.972;2022-10-13T09:02:13;26.50;;;14.77;;
11709;SDS011;5911;51.036;6.972;2022-10-13T09:04:52;25.50;;;14.47;;
11709;SDS011;5911;51.036;6.972;2022-10-13T09:07:22;22.93;;;14.63;;
11709;SDS011;5911;51.036;6.972;2022-10-13T09:09:53;19.83;;;13.80;;
11709;SDS011;5911;51.036;6.972;2022-10-13T09:12:23;28.47;;;16.97;;
11709;SDS011;5911;51.036;6.972;2022-10-13T09:14:57;29.43;;;16.93;;
11709;SDS011;5911;51.036;6.972;2022-10-13T09:17:28;22.47;;;15.57;;
11709;SDS011;5911;51.036;6.972;2022-10-13T09:19:58;25.00;;;15.40;;
11709;SDS011;5911;51.036;6.972;2022-10-13T09:22:31;23.50;;;13.63;;
11709;SDS011;5911;51.036;6.972;2022-10-13T09:25:06;19.07;;;12.60;;
11709;SDS011;5911;51.036;6.972;2022-10-13T09:27:43;18.77;;;11.70;;
11709;SDS011;5911;51.036;6.972;2022-10-13T09:30:23;19.47;;;14.27;;
11709;SDS011;5911;51.036;6.972;2022-10-13T09:33:13;21.50;;;13.03;;
11709;SDS011;5911;51.036;6.972;2022-10-13T09:36:04;14.33;;;10.83;;
11709;SDS011;5911;51.036;6.972;2022-10-13T09:38:38;12.57;;;10.03;;
11709;SDS011;5911;51.036;6.972;2022-10-13T09:41:11;15.30;;;10.70;;
11709;SDS011;5911;51.036;6.972;2022-10-13T09:43:42;18.33;;;10.43;;
11709;SDS011;5911;51.036;6.972;2022-10-13T09:46:26;15.23;;;10.73;;
11709;SDS011;5911;51.036;6.972;2022-10-13T09:48:58;15.60;;;10.70;;
11709;SDS011;5911;51.036;6.972;2022-10-13T09:51:32;12.93;;;9.23;;
11709;SDS011;5911;51.036;6.972;2022-10-13T09:54:24;17.63;;;10.37;;
11709;SDS011;5911;51.036;6.972;2022-10-13T09:56:56;20.08;;;10.85;;
11709;SDS011;5911;51.036;6.972;2022-10-13T09:59:29;15.63;;;10.30;;
11709;SDS011;5911;51.036;6.972;2022-10-13T10:02:03;17.57;;;11.33;;
11709;SDS011;5911;51.036;6.972;2022-10-13T10:04:50;15.00;;;10.50;;
11709;SDS011;5911;51.036;6.972;2022-10-13T10:07:21;13.93;;;10.13;;
11709;SDS011;5911;51.036;6.972;2022-10-13T10:09:58;15.43;;;10.23;;
11709;SDS011;5911;51.036;6.972;2022-10-13T10:12:30;14.27;;;10.23;;
11709;SDS011;5911;51.036;6.972;2022-10-13T10:15:02;14.90;;;10.93;;
11709;SDS011;5911;51.036;6.972;2022-10-13T10:17:45;16.83;;;9.97;;
11709;SDS011;5911;51.036;6.972;2022-10-13T10:20:28;13.83;;;9.97;;
11709;SDS011;5911;51.036;6.972;2022-10-13T10:23:08;16.10;;;10.57;;
11709;SDS011;5911;51.036;6.972;2022-10-13T10:25:43;15.70;;;10.32;;
11709;SDS011;5911;51.036;6.972;2022-10-13T10:28:19;14.95;;;9.52;;
11709;SDS011;5911;51.036;6.972;2022-10-13T10:31:05;14.00;;;10.10;;
11709;SDS011;5911;51.036;6.972;2022-10-13T10:33:47;16.87;;;9.77;;
11709;SDS011;5911;51.036;6.972;2022-10-13T10:36:26;14.23;;;9.37;;
11709;SDS011;5911;51.036;6.972;2022-10-13T10:39:02;17.60;;;10.83;;
11709;SDS011;5911;51.036;6.972;2022-10-13T10:41:42;15.40;;;10.03;;
11709;SDS011;5911;51.036;6.972;2022-10-13T10:44:16;16.17;;;9.10;;
11709;SDS011;5911;51.036;6.972;2022-10-13T10:46:48;12.47;;;9.53;;
11709;SDS011;5911;51.036;6.972;2022-10-13T10:49:24;17.63;;;10.47;;
11709;SDS011;5911;51.036;6.972;2022-10-13T10:51:56;15.23;;;9.67;;
11709;SDS011;5911;51.036;6.972;2022-10-13T10:54:29;12.77;;;9.70;;
11709;SDS011;5911;51.036;6.972;2022-10-13T10:57:15;12.00;;;9.43;;
11709;SDS011;5911;51.036;6.972;2022-10-13T10:59:54;15.83;;;9.63;;
11709;SDS011;5911;51.036;6.972;2022-10-13T11:02:36;15.07;;;9.15;;
11709;SDS011;5911;51.036;6.972;2022-10-13T11:05:12;13.63;;;9.27;;
11709;SDS011;5911;51.036;6.972;2022-10-13T11:07:53;13.20;;;9.53;;
11709;SDS011;5911;51.036;6.972;2022-10-13T11:10:23;12.57;;;9.77;;
11709;SDS011;5911;51.036;6.972;2022-10-13T11:15:48;13.47;;;9.80;;
11709;SDS011;5911;51.036;6.972;2022-10-13T11:21:23;15.67;;;10.00;;
11709;SDS011;5911;51.036;6.972;2022-10-13T11:23:51;14.00;;;8.73;;
11709;SDS011;5911;51.036;6.972;2022-10-13T11:29:18;13.03;;;8.77;;
11709;SDS011;5911;51.036;6.972;2022-10-13T11:32:17;11.70;;;8.73;;
11709;SDS011;5911;51.036;6.972;2022-10-13T11:35:21;15.50;;;9.67;;
11709;SDS011;5911;51.036;6.972;2022-10-13T11:37:56;12.53;;;8.43;;
11709;SDS011;5911;51.036;6.972;2022-10-13T11:40:46;16.43;;;9.87;;
11709;SDS011;5911;51.036;6.972;2022-10-13T11:43:37;11.73;;;8.47;;
11709;SDS011;5911;51.036;6.972;2022-10-13T11:46:29;17.53;;;9.53;;
11709;SDS011;5911;51.036;6.972;2022-10-13T11:49:25;13.03;;;9.20;;
11709;SDS011;5911;51.036;6.972;2022-10-13T11:52:17;14.30;;;9.40;;
11709;SDS011;5911;51.036;6.972;2022-10-13T11:54:59;11.57;;;9.27;;
11709;SDS011;5911;51.036;6.972;2022-10-13T11:57:29;13.73;;;9.33;;
11709;SDS011;5911;51.036;6.972;2022-10-13T12:00:00;13.43;;;9.27;;
11709;SDS011;5911;51.036;6.972;2022-10-13T12:02:45;16.63;;;9.98;;
11709;SDS011;5911;51.036;6.972;2022-10-13T12:05:19;15.05;;;9.15;;
11709;SDS011;5911;51.036;6.972;2022-10-13T12:07:49;16.13;;;10.20;;
11709;SDS011;5911;51.036;6.972;2022-10-13T12:10:20;21.40;;;10.57;;
11709;SDS011;5911;51.036;6.972;2022-10-13T12:12:53;13.20;;;10.37;;
11709;SDS011;5911;51.036;6.972;2022-10-13T12:15:29;12.30;;;9.50;;
11709;SDS011;5911;51.036;6.972;2022-10-13T12:18:00;16.93;;;10.07;;
11709;SDS011;5911;51.036;6.972;2022-10-13T12:20:30;13.43;;;9.60;;
11709;SDS011;5911;51.036;6.972;2022-10-13T12:22:59;11.43;;;8.77;;
11709;SDS011;5911;51.036;6.972;2022-10-13T12:25:27;14.48;;;9.05;;
11709;SDS011;5911;51.036;6.972;2022-10-13T12:27:57;11.75;;;9.13;;
11709;SDS011;5911;51.036;6.972;2022-10-13T12:30:27;11.50;;;8.15;;
11709;SDS011;5911;51.036;6.972;2022-10-13T12:32:57;9.70;;;7.80;;
11709;SDS011;5911;51.036;6.972;2022-10-13T12:35:27;10.05;;;7.35;;
11709;SDS011;5911;51.036;6.972;2022-10-13T12:37:57;12.50;;;8.30;;
11709;SDS011;5911;51.036;6.972;2022-10-13T12:40:31;10.37;;;8.43;;
11709;SDS011;5911;51.036;6.972;2022-10-13T12:43:02;11.57;;;7.47;;
11709;SDS011;5911;51.036;6.972;2022-10-13T12:45:31;11.33;;;7.50;;
11709;SDS011;5911;51.036;6.972;2022-10-13T12:48:02;12.33;;;7.37;;
11709;SDS011;5911;51.036;6.972;2022-10-13T12:50:34;8.23;;;6.63;;
11709;SDS011;5911;51.036;6.972;2022-10-13T12:53:04;11.60;;;6.97;;
11709;SDS011;5911;51.036;6.972;2022-10-13T12:55:45;9.13;;;6.27;;
11709;SDS011;5911;51.036;6.972;2022-10-13T12:58:17;10.97;;;6.60;;
11709;SDS011;5911;51.036;6.972;2022-10-13T13:00:55;9.17;;;6.77;;
11709;SDS011;5911;51.036;6.972;2022-10-13T13:03:28;9.82;;;6.53;;
11709;SDS011;5911;51.036;6.972;2022-10-13T13:06:07;13.83;;;7.17;;
11709;SDS011;5911;51.036;6.972;2022-10-13T13:08:36;8.60;;;6.90;;
11709;SDS011;5911;51.036;6.972;2022-10-13T13:11:07;10.47;;;7.00;;
11709;SDS011;5911;51.036;6.972;2022-10-13T13:13:47;11.30;;;7.57;;
11709;SDS011;5911;51.036;6.972;2022-10-13T13:16:16;13.33;;;7.33;;
11709;SDS011;5911;51.036;6.972;2022-10-13T13:18:47;10.23;;;6.80;;
11709;SDS011;5911;51.036;6.972;2022-10-13T13:21:18;9.13;;;7.00;;
11709;SDS011;5911;51.036;6.972;2022-10-13T13:23:47;8.50;;;6.50;;
11709;SDS011;5911;51.036;6.972;2022-10-13T13:26:19;8.53;;;7.00;;
11709;SDS011;5911;51.036;6.972;2022-10-13T13:28:49;7.73;;;6.47;;
11709;SDS011;5911;51.036;6.972;2022-10-13T13:31:19;11.82;;;6.40;;
11709;SDS011;5911;51.036;6.972;2022-10-13T13:33:50;7.07;;;5.88;;
11709;SDS011;5911;51.036;6.972;2022-10-13T13:36:19;10.80;;;5.50;;
11709;SDS011;5911;51.036;6.972;2022-10-13T13:38:50;8.02;;;5.82;;
11709;SDS011;5911;51.036;6.972;2022-10-13T13:41:20;9.23;;;6.37;;
11709;SDS011;5911;51.036;6.972;2022-10-13T13:43:48;8.55;;;6.03;;
11709;SDS011;5911;51.036;6.972;2022-10-13T13:46:17;7.37;;;5.80;;
11709;SDS011;5911;51.036;6.972;2022-10-13T13:48:47;8.17;;;7.20;;
11709;SDS011;5911;51.036;6.972;2022-10-13T13:51:16;9.27;;;6.80;;
11709;SDS011;5911;51.036;6.972;2022-10-13T13:53:44;10.90;;;7.60;;
11709;SDS011;5911;51.036;6.972;2022-10-13T13:56:19;10.43;;;7.50;;
11709;SDS011;5911;51.036;6.972;2022-10-13T13:58:47;9.40;;;7.80;;
11709;SDS011;5911;51.036;6.972;2022-10-13T14:01:18;11.50;;;8.27;;
11709;SDS011;5911;51.036;6.972;2022-10-13T14:03:51;9.18;;;8.15;;
11709;SDS011;5911;51.036;6.972;2022-10-13T14:06:20;12.77;;;8.60;;
11709;SDS011;5911;51.036;6.972;2022-10-13T14:08:50;11.50;;;9.13;;
11709;SDS011;5911;51.036;6.972;2022-10-13T14:11:18;11.88;;;9.10;;
11709;SDS011;5911;51.036;6.972;2022-10-13T14:13:48;15.43;;;9.30;;
11709;SDS011;5911;51.036;6.972;2022-10-13T14:16:24;10.77;;;9.43;;
11709;SDS011;5911;51.036;6.972;2022-10-13T14:18:54;16.20;;;11.27;;
11709;SDS011;5911;51.036;6.972;2022-10-13T14:21:25;14.32;;;10.52;;
11709;SDS011;5911;51.036;6.972;2022-10-13T14:23:55;16.70;;;12.23;;
11709;SDS011;5911;51.036;6.972;2022-10-13T14:26:23;14.90;;;12.00;;
11709;SDS011;5911;51.036;6.972;2022-10-13T14:28:50;18.15;;;12.10;;
11709;SDS011;5911;51.036;6.972;2022-10-13T14:31:18;19.23;;;11.90;;
11709;SDS011;5911;51.036;6.972;2022-10-13T14:33:46;19.97;;;13.27;;
11709;SDS011;5911;51.036;6.972;2022-10-13T14:36:20;16.10;;;12.88;;
11709;SDS011;5911;51.036;6.972;2022-10-13T14:38:49;18.15;;;14.63;;
11709;SDS011;5911;51.036;6.972;2022-10-13T14:41:17;20.70;;;14.27;;
11709;SDS011;5911;51.036;6.972;2022-10-13T14:43:50;18.63;;;14.85;;
11709;SDS011;5911;51.036;6.972;2022-10-13T14:46:18;16.92;;;13.95;;
11709;SDS011;5911;51.036;6.972;2022-10-13T14:48:46;17.17;;;13.13;;
11709;SDS011;5911;51.036;6.972;2022-10-13T14:51:14;17.83;;;12.18;;
11709;SDS011;5911;51.036;6.972;2022-10-13T14:53:43;16.83;;;11.90;;
11709;SDS011;5911;51.036;6.972;2022-10-13T14:56:18;17.33;;;13.40;;
11709;SDS011;5911;51.036;6.972;2022-10-13T14:58:56;19.05;;;12.95;;
11709;SDS011;5911;51.036;6.972;2022-10-13T15:01:34;36.55;;;21.02;;
11709;SDS011;5911;51.036;6.972;2022-10-13T15:04:03;27.75;;;18.98;;
11709;SDS011;5911;51.036;6.972;2022-10-13T15:06:31;21.65;;;14.63;;
11709;SDS011;5911;51.036;6.972;2022-10-13T15:08:59;25.67;;;16.08;;
11709;SDS011;5911;51.036;6.972;2022-10-13T15:11:29;20.17;;;13.85;;
11709;SDS011;5911;51.036;6.972;2022-10-13T15:13:57;19.53;;;13.90;;
11709;SDS011;5911;51.036;6.972;2022-10-13T15:16:28;23.40;;;14.75;;